sensor_id;sensor_type;location;lat;lon;timestamp;P1;durP1;ratioP1;P2;durP2;ratioP2
21089;SDS011;10703;51.020;6.128;2023-04-01T00:01:22;4.30;;;4.07;;
21089;SDS011;10703;51.020;6.128;2023-04-01T00:03:49;4.17;;;3.97;;
21089;SDS011;10703;51.020;6.128;2023-04-01T00:06:16;4.37;;;4.00;;
21089;SDS011;10703;51.020;6.128;2023-04-01T00:08:44;4.63;;;4.17;;
21089;SDS011;10703;51.020;6.128;2023-04-01T00:11:11;4.50;;;4.20;;
21089;SDS011;10703;51.020;6.128;2023-04-01T00:13:38;4.50;;;4.20;;
21089;SDS011;10703;51.020;6.128;2023-04-01T00:16:05;4.50;;;4.10;;
21089;SDS011;10703;51.020;6.128;2023-04-01T00:18:46;4.03;;;3.67;;
21089;SDS011;10703;51.020;6.128;2023-04-01T00:21:14;5.03;;;4.50;;
21089;SDS011;10703;51.020;6.128;2023-04-01T00:23:41;4.60;;;4.20;;
21089;SDS011;10703;51.020;6.128;2023-04-01T00:26:08;5.60;;;4.10;;
21089;SDS011;10703;51.020;6.128;2023-04-01T00:28:34;7.60;;;4.30;;
21089;SDS011;10703;51.020;6.128;2023-04-01T00:31:08;5.77;;;3.97;;
21089;SDS011;10703;51.020;6.128;2023-04-01T00:33:36;6.03;;;4.03;;
21089;SDS011;10703;51.020;6.128;2023-04-01T00:36:10;4.10;;;3.77;;
21089;SDS011;10703;51.020;6.128;2023-04-01T00:38:38;7.90;;;4.47;;
21089;SDS011;10703;51.020;6.128;2023-04-01T00:41:05;5.17;;;3.93;;
21089;SDS011;10703;51.020;6.128;2023-04-01T00:43:32;4.20;;;4.00;;
21089;SDS011;10703;51.020;6.128;2023-04-01T00:45:59;4.90;;;4.37;;
21089;SDS011;10703;51.020;6.128;2023-04-01T00:48:36;4.43;;;4.03;;
21089;SDS011;10703;51.020;6.128;2023-04-01T00:51:08;4.50;;;4.20;;
21089;SDS011;10703;51.020;6.128;2023-04-01T00:53:40;4.43;;;4.00;;
21089;SDS011;10703;51.020;6.128;2023-04-01T00:56:12;3.90;;;3.60;;
21089;SDS011;10703;51.020;6.128;2023-04-01T00:58:43;3.87;;;3.67;;
21089;SDS011;10703;51.020;6.128;2023-04-01T01:01:14;4.20;;;3.90;;
21089;SDS011;10703;51.020;6.128;2023-04-01T01:03:41;3.77;;;3.53;;
21089;SDS011;10703;51.020;6.128;2023-04-01T01:06:30;3.97;;;3.67;;
21089;SDS011;10703;51.020;6.128;2023-04-01T01:09:25;7.30;;;3.90;;
21089;SDS011;10703;51.020;6.128;2023-04-01T01:37:43;3.37;;;3.07;;
21089;SDS011;10703;51.020;6.128;2023-04-01T01:40:12;6.57;;;3.70;;
21089;SDS011;10703;51.020;6.128;2023-04-01T01:42:43;5.73;;;3.70;;
21089;SDS011;10703;51.020;6.128;2023-04-01T01:45:14;4.07;;;3.77;;
21089;SDS011;10703;51.020;6.128;2023-04-01T01:47:44;4.43;;;4.03;;
21089;SDS011;10703;51.020;6.128;2023-04-01T01:50:12;4.00;;;3.60;;
21089;SDS011;10703;51.020;6.128;2023-04-01T01:52:40;3.80;;;3.57;;
21089;SDS011;10703;51.020;6.128;2023-04-01T01:55:23;6.50;;;3.93;;
21089;SDS011;10703;51.020;6.128;2023-04-01T01:57:55;3.60;;;3.40;;
21089;SDS011;10703;51.020;6.128;2023-04-01T02:00:25;3.63;;;3.37;;
21089;SDS011;10703;51.020;6.128;2023-04-01T02:02:53;3.90;;;3.70;;
21089;SDS011;10703;51.020;6.128;2023-04-01T02:05:22;3.57;;;3.37;;
21089;SDS011;10703;51.020;6.128;2023-04-01T02:07:54;4.10;;;3.73;;
21089;SDS011;10703;51.020;6.128;2023-04-01T02:10:44;5.67;;;3.40;;
21089;SDS011;10703;51.020;6.128;2023-04-01T02:13:24;4.67;;;4.30;;
21089;SDS011;10703;51.020;6.128;2023-04-01T02:15:58;4.53;;;4.00;;
21089;SDS011;10703;51.020;6.128;2023-04-01T02:18:28;3.43;;;3.23;;
21089;SDS011;10703;51.020;6.128;2023-04-01T02:20:56;4.20;;;3.90;;
21089;SDS011;10703;51.020;6.128;2023-04-01T02:23:25;3.83;;;3.57;;
21089;SDS011;10703;51.020;6.128;2023-04-01T02:25:53;3.37;;;3.17;;
21089;SDS011;10703;51.020;6.128;2023-04-01T02:28:21;3.77;;;3.57;;
21089;SDS011;10703;51.020;6.128;2023-04-01T02:30:49;3.67;;;3.47;;
21089;SDS011;10703;51.020;6.128;2023-04-01T02:33:17;4.20;;;3.90;;
21089;SDS011;10703;51.020;6.128;2023-04-01T02:35:46;4.37;;;3.20;;
21089;SDS011;10703;51.020;6.128;2023-04-01T02:38:12;4.53;;;3.90;;
21089;SDS011;10703;51.020;6.128;2023-04-01T02:40:46;4.23;;;3.93;;
21089;SDS011;10703;51.020;6.128;2023-04-01T02:43:14;4.03;;;3.77;;
21089;SDS011;10703;51.020;6.128;2023-04-01T02:45:42;3.77;;;3.57;;
21089;SDS011;10703;51.020;6.128;2023-04-01T02:48:09;3.70;;;3.50;;
21089;SDS011;10703;51.020;6.128;2023-04-01T02:50:36;3.83;;;3.63;;
21089;SDS011;10703;51.020;6.128;2023-04-01T02:53:02;3.67;;;3.47;;
21089;SDS011;10703;51.020;6.128;2023-04-01T02:55:29;3.73;;;3.47;;
21089;SDS011;10703;51.020;6.128;2023-04-01T02:57:57;3.30;;;3.07;;
21089;SDS011;10703;51.020;6.128;2023-04-01T03:00:24;3.80;;;3.60;;
21089;SDS011;10703;51.020;6.128;2023-04-01T03:02:51;3.87;;;3.67;;
21089;SDS011;10703;51.020;6.128;2023-04-01T03:05:19;3.40;;;3.20;;
21089;SDS011;10703;51.020;6.128;2023-04-01T03:07:45;4.40;;;4.03;;
21089;SDS011;10703;51.020;6.128;2023-04-01T03:10:12;3.93;;;3.73;;
21089;SDS011;10703;51.020;6.128;2023-04-01T03:12:39;3.77;;;3.57;;
21089;SDS011;10703;51.020;6.128;2023-04-01T03:15:06;3.63;;;3.43;;
21089;SDS011;10703;51.020;6.128;2023-04-01T03:17:37;3.87;;;3.67;;
21089;SDS011;10703;51.020;6.128;2023-04-01T03:20:05;3.50;;;3.30;;
21089;SDS011;10703;51.020;6.128;2023-04-01T03:22:32;3.37;;;3.17;;
21089;SDS011;10703;51.020;6.128;2023-04-01T03:24:59;4.10;;;3.80;;
21089;SDS011;10703;51.020;6.128;2023-04-01T03:27:25;3.77;;;3.57;;
21089;SDS011;10703;51.020;6.128;2023-04-01T03:29:52;3.60;;;3.40;;
21089;SDS011;10703;51.020;6.128;2023-04-01T03:32:18;3.80;;;3.60;;
21089;SDS011;10703;51.020;6.128;2023-04-01T03:34:45;3.90;;;3.60;;
21089;SDS011;10703;51.020;6.128;2023-04-01T03:37:12;3.73;;;3.53;;
21089;SDS011;10703;51.020;6.128;2023-04-01T03:39:39;4.00;;;3.77;;
21089;SDS011;10703;51.020;6.128;2023-04-01T03:42:09;3.60;;;3.30;;
21089;SDS011;10703;51.020;6.128;2023-04-01T03:44:35;3.97;;;3.70;;
21089;SDS011;10703;51.020;6.128;2023-04-01T03:47:02;3.07;;;2.97;;
21089;SDS011;10703;51.020;6.128;2023-04-01T03:49:29;4.03;;;3.73;;
21089;SDS011;10703;51.020;6.128;2023-04-01T03:51:56;3.60;;;3.40;;
21089;SDS011;10703;51.020;6.128;2023-04-01T03:54:22;3.80;;;3.60;;
21089;SDS011;10703;51.020;6.128;2023-04-01T03:56:49;3.60;;;3.40;;
21089;SDS011;10703;51.020;6.128;2023-04-01T03:59:15;3.40;;;3.20;;
21089;SDS011;10703;51.020;6.128;2023-04-01T04:01:42;3.60;;;3.40;;
21089;SDS011;10703;51.020;6.128;2023-04-01T04:04:12;4.00;;;3.80;;
21089;SDS011;10703;51.020;6.128;2023-04-01T04:06:39;3.50;;;3.20;;
21089;SDS011;10703;51.020;6.128;2023-04-01T04:09:06;3.97;;;3.67;;
21089;SDS011;10703;51.020;6.128;2023-04-01T04:11:32;3.60;;;3.30;;
21089;SDS011;10703;51.020;6.128;2023-04-01T04:13:59;3.53;;;3.33;;
21089;SDS011;10703;51.020;6.128;2023-04-01T04:16:26;4.20;;;3.80;;
21089;SDS011;10703;51.020;6.128;2023-04-01T04:18:52;3.80;;;3.50;;
21089;SDS011;10703;51.020;6.128;2023-04-01T04:21:19;3.60;;;3.40;;
21089;SDS011;10703;51.020;6.128;2023-04-01T04:23:45;3.37;;;3.17;;
21089;SDS011;10703;51.020;6.128;2023-04-01T04:26:13;3.83;;;3.53;;
21089;SDS011;10703;51.020;6.128;2023-04-01T04:28:40;4.27;;;3.90;;
21089;SDS011;10703;51.020;6.128;2023-04-01T04:31:07;3.90;;;3.60;;
21089;SDS011;10703;51.020;6.128;2023-04-01T04:33:34;4.57;;;3.67;;
21089;SDS011;10703;51.020;6.128;2023-04-01T04:36:02;3.67;;;3.47;;
21089;SDS011;10703;51.020;6.128;2023-04-01T04:38:29;3.77;;;3.57;;
21089;SDS011;10703;51.020;6.128;2023-04-01T04:40:56;4.27;;;3.97;;
21089;SDS011;10703;51.020;6.128;2023-04-01T04:43:23;3.70;;;3.50;;
21089;SDS011;10703;51.020;6.128;2023-04-01T04:45:49;3.27;;;3.07;;
21089;SDS011;10703;51.020;6.128;2023-04-01T04:48:16;5.33;;;3.50;;
21089;SDS011;10703;51.020;6.128;2023-04-01T04:50:45;3.90;;;3.70;;
21089;SDS011;10703;51.020;6.128;2023-04-01T04:53:14;3.70;;;3.50;;
21089;SDS011;10703;51.020;6.128;2023-04-01T04:55:45;3.50;;;3.30;;
21089;SDS011;10703;51.020;6.128;2023-04-01T04:58:13;3.47;;;3.27;;
21089;SDS011;10703;51.020;6.128;2023-04-01T05:00:40;4.07;;;3.77;;
21089;SDS011;10703;51.020;6.128;2023-04-01T05:03:07;3.47;;;3.27;;
21089;SDS011;10703;51.020;6.128;2023-04-01T05:05:34;3.70;;;3.40;;
21089;SDS011;10703;51.020;6.128;2023-04-01T05:08:00;4.03;;;3.73;;
21089;SDS011;10703;51.020;6.128;2023-04-01T05:10:27;3.47;;;3.27;;
21089;SDS011;10703;51.020;6.128;2023-04-01T05:12:54;3.90;;;3.60;;
21089;SDS011;10703;51.020;6.128;2023-04-01T05:15:21;3.60;;;3.40;;
21089;SDS011;10703;51.020;6.128;2023-04-01T05:17:48;4.07;;;3.77;;
21089;SDS011;10703;51.020;6.128;2023-04-01T05:20:14;3.20;;;3.00;;
21089;SDS011;10703;51.020;6.128;2023-04-01T05:22:41;3.90;;;3.60;;
21089;SDS011;10703;51.020;6.128;2023-04-01T05:25:09;3.83;;;3.53;;
21089;SDS011;10703;51.020;6.128;2023-04-01T05:27:35;3.63;;;3.37;;
21089;SDS011;10703;51.020;6.128;2023-04-01T05:30:02;3.27;;;3.07;;
21089;SDS011;10703;51.020;6.128;2023-04-01T05:32:30;3.43;;;3.20;;
21089;SDS011;10703;51.020;6.128;2023-04-01T05:34:57;3.43;;;3.23;;
21089;SDS011;10703;51.020;6.128;2023-04-01T05:37:24;3.90;;;3.63;;
21089;SDS011;10703;51.020;6.128;2023-04-01T05:39:50;3.80;;;3.47;;
21089;SDS011;10703;51.020;6.128;2023-04-01T05:42:17;3.07;;;2.87;;
21089;SDS011;10703;51.020;6.128;2023-04-01T05:44:43;3.43;;;3.23;;
21089;SDS011;10703;51.020;6.128;2023-04-01T05:47:10;3.20;;;3.00;;
21089;SDS011;10703;51.020;6.128;2023-04-01T05:49:36;7.33;;;3.20;;
21089;SDS011;10703;51.020;6.128;2023-04-01T05:52:03;3.77;;;3.47;;
21089;SDS011;10703;51.020;6.128;2023-04-01T05:54:30;4.63;;;4.23;;
21089;SDS011;10703;51.020;6.128;2023-04-01T05:56:56;3.30;;;3.10;;
21089;SDS011;10703;51.020;6.128;2023-04-01T05:59:23;4.03;;;3.73;;
21089;SDS011;10703;51.020;6.128;2023-04-01T06:01:49;4.00;;;3.70;;
21089;SDS011;10703;51.020;6.128;2023-04-01T06:04:17;3.83;;;3.53;;
21089;SDS011;10703;51.020;6.128;2023-04-01T06:06:44;6.43;;;3.77;;
21089;SDS011;10703;51.020;6.128;2023-04-01T06:09:23;4.37;;;3.37;;
21089;SDS011;10703;51.020;6.128;2023-04-01T06:12:01;4.30;;;3.93;;
21089;SDS011;10703;51.020;6.128;2023-04-01T06:15:01;5.70;;;3.40;;
21089;SDS011;10703;51.020;6.128;2023-04-01T06:17:59;4.17;;;3.77;;
21089;SDS011;10703;51.020;6.128;2023-04-01T06:21:07;4.20;;;3.90;;
21089;SDS011;10703;51.020;6.128;2023-04-01T06:23:47;4.10;;;3.80;;
21089;SDS011;10703;51.020;6.128;2023-04-01T06:26:39;4.43;;;4.13;;
21089;SDS011;10703;51.020;6.128;2023-04-01T06:37:47;4.43;;;4.03;;
21089;SDS011;10703;51.020;6.128;2023-04-01T06:40:44;5.07;;;4.33;;
21089;SDS011;10703;51.020;6.128;2023-04-01T06:44:14;4.97;;;4.50;;
21089;SDS011;10703;51.020;6.128;2023-04-01T06:46:34;5.07;;;4.60;;
21089;SDS011;10703;51.020;6.128;2023-04-01T06:49:41;6.77;;;5.13;;
21089;SDS011;10703;51.020;6.128;2023-04-01T06:57:56;4.13;;;3.73;;
21089;SDS011;10703;51.020;6.128;2023-04-01T07:00:30;4.80;;;4.30;;
21089;SDS011;10703;51.020;6.128;2023-04-01T07:05:52;5.30;;;4.83;;
21089;SDS011;10703;51.020;6.128;2023-04-01T07:08:23;4.77;;;4.27;;
21089;SDS011;10703;51.020;6.128;2023-04-01T07:10:53;3.50;;;3.30;;
21089;SDS011;10703;51.020;6.128;2023-04-01T07:13:36;3.43;;;3.20;;
21089;SDS011;10703;51.020;6.128;2023-04-01T07:17:12;5.30;;;4.90;;
21089;SDS011;10703;51.020;6.128;2023-04-01T07:21:54;4.20;;;3.90;;
21089;SDS011;10703;51.020;6.128;2023-04-01T07:24:26;3.70;;;3.50;;
21089;SDS011;10703;51.020;6.128;2023-04-01T07:26:59;3.93;;;3.63;;
21089;SDS011;10703;51.020;6.128;2023-04-01T07:29:25;4.70;;;4.27;;
21089;SDS011;10703;51.020;6.128;2023-04-01T07:34:26;6.10;;;3.97;;
21089;SDS011;10703;51.020;6.128;2023-04-01T07:51:23;3.73;;;3.43;;
21089;SDS011;10703;51.020;6.128;2023-04-01T07:53:43;3.50;;;3.30;;
21089;SDS011;10703;51.020;6.128;2023-04-01T08:04:31;4.00;;;3.77;;
21089;SDS011;10703;51.020;6.128;2023-04-01T08:07:18;4.10;;;3.83;;
21089;SDS011;10703;51.020;6.128;2023-04-01T08:09:55;4.57;;;4.20;;
21089;SDS011;10703;51.020;6.128;2023-04-01T08:12:38;5.17;;;4.77;;
21089;SDS011;10703;51.020;6.128;2023-04-01T08:18:13;3.93;;;3.63;;
21089;SDS011;10703;51.020;6.128;2023-04-01T08:20:51;4.30;;;4.00;;
21089;SDS011;10703;51.020;6.128;2023-04-01T08:23:24;3.97;;;3.67;;
21089;SDS011;10703;51.020;6.128;2023-04-01T08:28:31;3.53;;;3.33;;
21089;SDS011;10703;51.020;6.128;2023-04-01T08:31:06;3.70;;;3.50;;
21089;SDS011;10703;51.020;6.128;2023-04-01T08:33:38;4.03;;;3.80;;
21089;SDS011;10703;51.020;6.128;2023-04-01T08:36:11;4.60;;;4.30;;
21089;SDS011;10703;51.020;6.128;2023-04-01T08:52:24;4.70;;;4.40;;
21089;SDS011;10703;51.020;6.128;2023-04-01T08:58:11;3.73;;;3.43;;
21089;SDS011;10703;51.020;6.128;2023-04-01T09:01:03;3.77;;;3.57;;
21089;SDS011;10703;51.020;6.128;2023-04-01T09:06:38;4.07;;;3.77;;
21089;SDS011;10703;51.020;6.128;2023-04-01T09:09:19;3.70;;;3.50;;
21089;SDS011;10703;51.020;6.128;2023-04-01T09:23:29;4.50;;;4.20;;
21089;SDS011;10703;51.020;6.128;2023-04-01T09:26:35;5.13;;;4.73;;
21089;SDS011;10703;51.020;6.128;2023-04-01T09:35:10;5.73;;;5.27;;
21089;SDS011;10703;51.020;6.128;2023-04-01T09:43:02;5.17;;;4.80;;
21089;SDS011;10703;51.020;6.128;2023-04-01T09:46:09;4.90;;;4.50;;
21089;SDS011;10703;51.020;6.128;2023-04-01T09:54:45;4.87;;;4.57;;
21089;SDS011;10703;51.020;6.128;2023-04-01T10:00:27;5.50;;;5.10;;
21089;SDS011;10703;51.020;6.128;2023-04-01T10:14:16;5.97;;;5.57;;
21089;SDS011;10703;51.020;6.128;2023-04-01T10:36:16;5.67;;;5.17;;
21089;SDS011;10703;51.020;6.128;2023-04-01T10:47:46;5.90;;;5.40;;
21089;SDS011;10703;51.020;6.128;2023-04-01T11:01:15;6.43;;;5.93;;
21089;SDS011;10703;51.020;6.128;2023-04-01T11:07:19;5.20;;;4.80;;
21089;SDS011;10703;51.020;6.128;2023-04-01T11:21:37;5.33;;;4.93;;
21089;SDS011;10703;51.020;6.128;2023-04-01T11:24:26;5.70;;;5.30;;
21089;SDS011;10703;51.020;6.128;2023-04-01T11:32:57;4.80;;;4.50;;
21089;SDS011;10703;51.020;6.128;2023-04-01T11:41:30;4.90;;;4.60;;
21089;SDS011;10703;51.020;6.128;2023-04-01T11:52:21;5.30;;;4.87;;
21089;SDS011;10703;51.020;6.128;2023-04-01T11:54:55;4.83;;;4.53;;
21089;SDS011;10703;51.020;6.128;2023-04-01T11:57:38;6.00;;;5.57;;
21089;SDS011;10703;51.020;6.128;2023-04-01T12:06:21;6.17;;;5.67;;
21089;SDS011;10703;51.020;6.128;2023-04-01T12:09:17;5.50;;;5.00;;
21089;SDS011;10703;51.020;6.128;2023-04-01T12:12:03;4.70;;;4.40;;
21089;SDS011;10703;51.020;6.128;2023-04-01T12:22:44;5.97;;;5.43;;
21089;SDS011;10703;51.020;6.128;2023-04-01T12:25:22;5.60;;;5.20;;
21089;SDS011;10703;51.020;6.128;2023-04-01T12:30:42;4.90;;;4.53;;
21089;SDS011;10703;51.020;6.128;2023-04-01T12:42:01;4.57;;;4.27;;
21089;SDS011;10703;51.020;6.128;2023-04-01T12:50:23;5.70;;;5.30;;
21089;SDS011;10703;51.020;6.128;2023-04-01T12:55:40;5.97;;;5.47;;
21089;SDS011;10703;51.020;6.128;2023-04-01T13:03:43;4.07;;;3.87;;
21089;SDS011;10703;51.020;6.128;2023-04-01T13:12:04;4.23;;;4.03;;
21089;SDS011;10703;51.020;6.128;2023-04-01T13:17:40;4.70;;;4.40;;
21089;SDS011;10703;51.020;6.128;2023-04-01T13:20:23;5.20;;;4.80;;
21089;SDS011;10703;51.020;6.128;2023-04-01T13:23:19;4.80;;;4.50;;
21089;SDS011;10703;51.020;6.128;2023-04-01T13:26:18;4.53;;;4.23;;
21089;SDS011;10703;51.020;6.128;2023-04-01T13:29:13;5.70;;;5.30;;
21089;SDS011;10703;51.020;6.128;2023-04-01T13:31:51;6.20;;;5.70;;
21089;SDS011;10703;51.020;6.128;2023-04-01T13:34:59;5.37;;;4.90;;
21089;SDS011;10703;51.020;6.128;2023-04-01T13:44:06;7.30;;;6.70;;
21089;SDS011;10703;51.020;6.128;2023-04-01T13:46:41;6.70;;;6.17;;
21089;SDS011;10703;51.020;6.128;2023-04-01T13:49:53;7.43;;;6.83;;
21089;SDS011;10703;51.020;6.128;2023-04-01T14:00:51;5.93;;;5.53;;
21089;SDS011;10703;51.020;6.128;2023-04-01T14:15:28;5.17;;;4.80;;
21089;SDS011;10703;51.020;6.128;2023-04-01T14:20:52;5.70;;;5.30;;
21089;SDS011;10703;51.020;6.128;2023-04-01T14:23:47;6.10;;;5.60;;
21089;SDS011;10703;51.020;6.128;2023-04-01T14:26:42;5.47;;;5.07;;
21089;SDS011;10703;51.020;6.128;2023-04-01T14:38:06;5.93;;;5.53;;
21089;SDS011;10703;51.020;6.128;2023-04-01T14:52:44;6.47;;;5.87;;
21089;SDS011;10703;51.020;6.128;2023-04-01T14:54:57;5.93;;;5.33;;
21089;SDS011;10703;51.020;6.128;2023-04-01T14:57:29;7.27;;;6.67;;
21089;SDS011;10703;51.020;6.128;2023-04-01T15:00:12;7.03;;;6.43;;
21089;SDS011;10703;51.020;6.128;2023-04-01T15:05:26;6.80;;;6.23;;
21089;SDS011;10703;51.020;6.128;2023-04-01T15:13:55;5.40;;;5.00;;
21089;SDS011;10703;51.020;6.128;2023-04-01T15:16:34;5.87;;;5.37;;
21089;SDS011;10703;51.020;6.128;2023-04-01T15:19:47;5.80;;;5.30;;
21089;SDS011;10703;51.020;6.128;2023-04-01T15:25:30;7.33;;;6.63;;
21089;SDS011;10703;51.020;6.128;2023-04-01T15:28:19;5.10;;;4.70;;
21089;SDS011;10703;51.020;6.128;2023-04-01T15:30:54;6.67;;;6.07;;
21089;SDS011;10703;51.020;6.128;2023-04-01T15:41:43;5.30;;;4.90;;
21089;SDS011;10703;51.020;6.128;2023-04-01T15:44:53;6.70;;;6.00;;
21089;SDS011;10703;51.020;6.128;2023-04-01T15:47:37;6.47;;;5.97;;
21089;SDS011;10703;51.020;6.128;2023-04-01T15:50:48;5.87;;;5.47;;
21089;SDS011;10703;51.020;6.128;2023-04-01T15:59:42;6.60;;;6.10;;
21089;SDS011;10703;51.020;6.128;2023-04-01T16:02:34;8.30;;;7.50;;
21089;SDS011;10703;51.020;6.128;2023-04-01T16:11:48;6.90;;;6.30;;
21089;SDS011;10703;51.020;6.128;2023-04-01T16:21:58;7.13;;;6.53;;
21089;SDS011;10703;51.020;6.128;2023-04-01T16:24:31;6.20;;;5.70;;
21089;SDS011;10703;51.020;6.128;2023-04-01T16:30:01;7.32;;;6.63;;
21089;SDS011;10703;51.020;6.128;2023-04-01T16:32:57;7.63;;;6.93;;
21089;SDS011;10703;51.020;6.128;2023-04-01T16:35:46;7.20;;;6.57;;
21089;SDS011;10703;51.020;6.128;2023-04-01T16:38:43;6.73;;;6.13;;
21089;SDS011;10703;51.020;6.128;2023-04-01T16:41:19;6.43;;;5.93;;
21089;SDS011;10703;51.020;6.128;2023-04-01T16:43:52;6.90;;;6.30;;
21089;SDS011;10703;51.020;6.128;2023-04-01T16:46:34;6.47;;;5.90;;
21089;SDS011;10703;51.020;6.128;2023-04-01T16:54:28;8.40;;;7.70;;
21089;SDS011;10703;51.020;6.128;2023-04-01T16:59:38;7.90;;;7.10;;
21089;SDS011;10703;51.020;6.128;2023-04-01T17:02:12;9.13;;;8.27;;
21089;SDS011;10703;51.020;6.128;2023-04-01T17:04:47;8.50;;;7.80;;
21089;SDS011;10703;51.020;6.128;2023-04-01T17:07:40;8.13;;;7.27;;
21089;SDS011;10703;51.020;6.128;2023-04-01T17:21:49;8.20;;;7.50;;
21089;SDS011;10703;51.020;6.128;2023-04-01T17:24:44;9.70;;;8.57;;
21089;SDS011;10703;51.020;6.128;2023-04-01T17:30:53;8.17;;;7.37;;
21089;SDS011;10703;51.020;6.128;2023-04-01T17:36:35;5.53;;;5.10;;
21089;SDS011;10703;51.020;6.128;2023-04-01T17:39:25;8.30;;;7.50;;
21089;SDS011;10703;51.020;6.128;2023-04-01T17:42:06;7.20;;;6.50;;
21089;SDS011;10703;51.020;6.128;2023-04-01T17:44:51;9.20;;;7.63;;
21089;SDS011;10703;51.020;6.128;2023-04-01T17:50:09;7.87;;;7.07;;
21089;SDS011;10703;51.020;6.128;2023-04-01T17:55:46;5.97;;;5.47;;
21089;SDS011;10703;51.020;6.128;2023-04-01T18:01:23;3.90;;;3.60;;
21089;SDS011;10703;51.020;6.128;2023-04-01T18:04:11;6.97;;;6.37;;
21089;SDS011;10703;51.020;6.128;2023-04-01T18:06:47;6.10;;;5.60;;
21089;SDS011;10703;51.020;6.128;2023-04-01T18:09:42;6.40;;;5.90;;
21089;SDS011;10703;51.020;6.128;2023-04-01T18:12:33;6.43;;;5.83;;
21089;SDS011;10703;51.020;6.128;2023-04-01T18:21:05;5.63;;;5.13;;
21089;SDS011;10703;51.020;6.128;2023-04-01T18:23:58;6.13;;;5.47;;
21089;SDS011;10703;51.020;6.128;2023-04-01T18:26:46;5.80;;;5.40;;
21089;SDS011;10703;51.020;6.128;2023-04-01T18:40:46;6.87;;;6.13;;
21089;SDS011;10703;51.020;6.128;2023-04-01T18:46:05;8.83;;;7.40;;
21089;SDS011;10703;51.020;6.128;2023-04-01T18:51:23;6.13;;;5.63;;
21089;SDS011;10703;51.020;6.128;2023-04-01T18:54:02;7.90;;;7.23;;
21089;SDS011;10703;51.020;6.128;2023-04-01T18:56:39;7.10;;;6.47;;
21089;SDS011;10703;51.020;6.128;2023-04-01T19:01:55;8.83;;;7.63;;
21089;SDS011;10703;51.020;6.128;2023-04-01T19:04:47;8.07;;;7.27;;
21089;SDS011;10703;51.020;6.128;2023-04-01T19:07:33;8.77;;;7.40;;
21089;SDS011;10703;51.020;6.128;2023-04-01T19:10:14;8.00;;;7.23;;
21089;SDS011;10703;51.020;6.128;2023-04-01T19:21:12;11.10;;;9.27;;
21089;SDS011;10703;51.020;6.128;2023-04-01T19:24:10;8.27;;;7.47;;
21089;SDS011;10703;51.020;6.128;2023-04-01T19:27:08;8.07;;;7.33;;
21089;SDS011;10703;51.020;6.128;2023-04-01T19:29:58;8.13;;;7.27;;
21089;SDS011;10703;51.020;6.128;2023-04-01T19:43:28;7.27;;;6.57;;
21089;SDS011;10703;51.020;6.128;2023-04-01T19:51:53;6.97;;;6.27;;
21089;SDS011;10703;51.020;6.128;2023-04-01T19:54:30;7.70;;;6.67;;
21089;SDS011;10703;51.020;6.128;2023-04-01T19:59:57;7.37;;;6.67;;
21089;SDS011;10703;51.020;6.128;2023-04-01T20:02:33;7.30;;;6.60;;
21089;SDS011;10703;51.020;6.128;2023-04-01T20:05:28;7.40;;;6.70;;
21089;SDS011;10703;51.020;6.128;2023-04-01T20:11:01;9.10;;;8.10;;
21089;SDS011;10703;51.020;6.128;2023-04-01T20:16:39;9.40;;;8.50;;
21089;SDS011;10703;51.020;6.128;2023-04-01T20:19:35;9.73;;;8.73;;
21089;SDS011;10703;51.020;6.128;2023-04-01T20:25:09;9.20;;;8.30;;
21089;SDS011;10703;51.020;6.128;2023-04-01T20:30:50;8.97;;;8.17;;
21089;SDS011;10703;51.020;6.128;2023-04-01T20:34:01;9.63;;;8.63;;
21089;SDS011;10703;51.020;6.128;2023-04-01T20:39:20;10.30;;;9.20;;
21089;SDS011;10703;51.020;6.128;2023-04-01T20:42:27;11.30;;;10.20;;
21089;SDS011;10703;51.020;6.128;2023-04-01T20:47:52;12.00;;;10.43;;
21089;SDS011;10703;51.020;6.128;2023-04-01T20:50:32;13.27;;;11.33;;
21089;SDS011;10703;51.020;6.128;2023-04-01T20:53:16;12.17;;;10.87;;
21089;SDS011;10703;51.020;6.128;2023-04-01T21:14:51;8.40;;;7.50;;
21089;SDS011;10703;51.020;6.128;2023-04-01T21:20:32;9.43;;;7.97;;
21089;SDS011;10703;51.020;6.128;2023-04-01T21:33:42;7.63;;;6.83;;
21089;SDS011;10703;51.020;6.128;2023-04-01T21:42:00;7.70;;;6.87;;
21089;SDS011;10703;51.020;6.128;2023-04-01T21:44:55;7.90;;;7.10;;
21089;SDS011;10703;51.020;6.128;2023-04-01T21:50:39;7.80;;;7.10;;
21089;SDS011;10703;51.020;6.128;2023-04-01T21:59:44;7.13;;;6.53;;
21089;SDS011;10703;51.020;6.128;2023-04-01T22:08:17;9.00;;;8.10;;
21089;SDS011;10703;51.020;6.128;2023-04-01T22:13:38;10.33;;;9.33;;
21089;SDS011;10703;51.020;6.128;2023-04-01T22:19:17;10.87;;;9.77;;
21089;SDS011;10703;51.020;6.128;2023-04-01T22:24:41;10.73;;;9.63;;
21089;SDS011;10703;51.020;6.128;2023-04-01T22:27:49;13.43;;;10.67;;
21089;SDS011;10703;51.020;6.128;2023-04-01T22:30:28;12.53;;;10.60;;
21089;SDS011;10703;51.020;6.128;2023-04-01T22:33:08;12.33;;;11.13;;
21089;SDS011;10703;51.020;6.128;2023-04-01T22:35:49;11.67;;;10.47;;
21089;SDS011;10703;51.020;6.128;2023-04-01T22:38:34;10.90;;;9.80;;
21089;SDS011;10703;51.020;6.128;2023-04-01T22:43:55;9.53;;;8.63;;
21089;SDS011;10703;51.020;6.128;2023-04-01T22:54:50;10.60;;;9.63;;
21089;SDS011;10703;51.020;6.128;2023-04-01T23:00:07;10.90;;;9.80;;
21089;SDS011;10703;51.020;6.128;2023-04-01T23:05:54;10.00;;;8.97;;
21089;SDS011;10703;51.020;6.128;2023-04-01T23:08:30;10.30;;;9.30;;
21089;SDS011;10703;51.020;6.128;2023-04-01T23:11:16;11.17;;;9.83;;
21089;SDS011;10703;51.020;6.128;2023-04-01T23:13:47;10.13;;;9.23;;
21089;SDS011;10703;51.020;6.128;2023-04-01T23:16:28;9.27;;;8.37;;
21089;SDS011;10703;51.020;6.128;2023-04-01T23:19:17;9.93;;;9.03;;
21089;SDS011;10703;51.020;6.128;2023-04-01T23:21:51;8.43;;;7.63;;
21089;SDS011;10703;51.020;6.128;2023-04-01T23:24:30;9.43;;;8.53;;
21089;SDS011;10703;51.020;6.128;2023-04-01T23:27:09;8.90;;;8.00;;
21089;SDS011;10703;51.020;6.128;2023-04-01T23:29:43;8.67;;;7.87;;
21089;SDS011;10703;51.020;6.128;2023-04-01T23:32:18;8.33;;;7.63;;
21089;SDS011;10703;51.020;6.128;2023-04-01T23:34:49;7.93;;;7.13;;
21089;SDS011;10703;51.020;6.128;2023-04-01T23:37:18;6.70;;;6.13;;
21089;SDS011;10703;51.020;6.128;2023-04-01T23:39:50;7.07;;;6.47;;
21089;SDS011;10703;51.020;6.128;2023-04-01T23:42:22;8.27;;;7.47;;
21089;SDS011;10703;51.020;6.128;2023-04-01T23:44:58;8.10;;;7.40;;
21089;SDS011;10703;51.020;6.128;2023-04-01T23:47:33;7.40;;;6.80;;
21089;SDS011;10703;51.020;6.128;2023-04-01T23:50:11;8.27;;;7.50;;
21089;SDS011;10703;51.020;6.128;2023-04-01T23:52:43;9.10;;;7.90;;
21089;SDS011;10703;51.020;6.128;2023-04-01T23:55:15;10.27;;;9.37;;
